Flight Track Log - Related Links

Times and Time Zones

All times are in EDT time to prevent confusion due to time zone crossing. See the AAY804 flight status page for this flight to view local times or setup timezone preferences in your user account.

Time Position Orientation Groundspeed Altitude Reporting Facility
EDT Latitude Longitude Course Direction KTS MPH feet Rate Location/Type
Sun 08:50:20 AM 27.9333 -82.7000 24° Northeast 171 197 900  Level Tampa TRACON
Sun 08:51:02 AM 27.9667 -82.6833 24° Northeast 184 212 1,800 1,647 Climbing Tampa TRACON
Sun 08:52:02 AM 28.0333 -82.6667 12° North 273 314 3,700 2,255 Climbing Tampa TRACON
Sun 08:53:47 AM 28.1478 -82.6972 347° North 278 320 8,000 2,566 Climbing Miami Center
Sun 08:54:27 AM 28.2061 -82.7136 346° North 282 325 9,900 1,920 Climbing Jacksonville Center
Sun 08:55:27 AM 28.2939 -82.7347 348° North 297 342 11,200 1,700 Climbing Jacksonville Center
Sun 08:56:27 AM 28.3897 -82.7558 349° North 326 375 13,300 2,000 Climbing Jacksonville Center
Sun 08:57:27 AM 28.4900 -82.7792 348° North 349 402 15,200 1,800 Climbing Jacksonville Center
Sun 08:58:27 AM 28.5964 -82.8050 348° North 368 423 16,900 1,600 Climbing Jacksonville Center
Sun 08:59:27 AM 28.7008 -82.8311 348° North 380 437 18,400 1,600 Climbing Jacksonville Center
Sun 09:00:27 AM 28.8114 -82.8569 348° North 385 443 20,100 1,550 Climbing Jacksonville Center
Sun 09:01:27 AM 28.9200 -82.8831 348° North 397 457 21,500 1,400 Climbing Jacksonville Center
Sun 09:02:27 AM 29.0347 -82.9117 348° North 402 463 22,900 1,400 Climbing Jacksonville Center
Sun 09:03:27 AM 29.1497 -82.9400 348° North 414 476 24,300 1,350 Climbing Jacksonville Center
Sun 09:04:27 AM 29.2664 -82.9664 349° North 419 482 25,600 1,200 Climbing Jacksonville Center
Sun 09:05:27 AM 29.3856 -82.9975 347° North 424 488 26,700 850 Climbing Jacksonville Center
Sun 09:06:27 AM 29.4961 -83.0261 347° North 438 504 27,300 700 Climbing Jacksonville Center
Sun 09:07:27 AM 29.6192 -83.0597 347° North 448 516 28,100 950 Climbing Jacksonville Center
Sun 09:08:27 AM 29.7403 -83.1150 338° Northwest 459 528 29,200 1,100 Climbing Jacksonville Center
Sun 09:09:27 AM 29.8592 -83.1703 338° Northwest 465 535 30,300 1,200 Climbing Jacksonville Center
Sun 09:10:27 AM 29.9758 -83.2258 338° Northwest 465 535 31,600 1,000 Climbing Jacksonville Center
Sun 09:11:27 AM 30.0969 -83.2792 339° North 460 529 32,300 950 Climbing Jacksonville Center
Sun 09:12:27 AM 30.2156 -83.3372 337° Northwest 460 529 33,500 1,200 Climbing Jacksonville Center
Sun 09:13:27 AM 30.3322 -83.3908 338° Northwest 454 522 34,700 1,200 Climbing Jacksonville Center
Sun 09:14:27 AM 30.4469 -83.4444 338° Northwest 454 522 35,900 650 Climbing Jacksonville Center
Sun 09:15:27 AM 30.5594 -83.4981 338° Northwest 449 517 36,000 50 Climbing Jacksonville Center
Sun 09:16:27 AM 30.6742 -83.5519 338° Northwest 444 511 36,000  Level Jacksonville Center
Sun 09:17:27 AM 30.7844 -83.6058 337° Northwest 438 504 36,000  Level Jacksonville Center
Sun 09:18:27 AM 30.9011 -83.6575 339° North 438 504 36,000  Level Jacksonville Center
Sun 09:19:27 AM 31.0133 -83.7142 337° Northwest 438 504 36,000  Level Jacksonville Center
Sun 09:20:27 AM 31.1278 -83.7686 338° Northwest 438 504 36,000  Level Jacksonville Center
Sun 09:21:27 AM 31.2381 -83.8233 337° Northwest 438 504 36,000  Level Jacksonville Center
Sun 09:23:14 AM 31.4397 -83.9219 337° Northwest 461 531 36,000  Level Atlanta Center
Sun 09:24:14 AM 31.5692 -83.9756 341° North 449 517 36,000  Level Atlanta Center
Sun 09:25:14 AM 31.6964 -84.0022 350° North 449 517 36,000  Level Atlanta Center
Sun 09:26:14 AM 31.8197 -84.0267 350° North 449 517 36,000  Level Atlanta Center
Sun 09:27:14 AM 31.9428 -84.0511 350° North 449 517 36,000  Level Atlanta Center
Sun 09:28:14 AM 32.0658 -84.0806 349° North 449 517 36,000  Level Atlanta Center
Sun 09:29:14 AM 32.1911 -84.1075 350° North 449 517 36,000  Level Atlanta Center
Sun 09:30:14 AM 32.3164 -84.1372 349° North 449 517 36,000  Level Atlanta Center
Sun 09:31:14 AM 32.4394 -84.1644 349° North 449 517 36,000 -300 Level Atlanta Center
Sun 09:32:14 AM 32.5647 -84.1917 350° North 449 517 35,400 -500 Descending Atlanta Center
Sun 09:33:14 AM 32.6900 -84.2214 349° North 449 517 35,000 -200 Descending Atlanta Center
Sun 09:34:14 AM 32.8150 -84.2514 349° North 449 517 35,000 -200 Level Atlanta Center
Sun 09:35:14 AM 32.9403 -84.2789 350° North 449 517 34,600 -650 Descending Atlanta Center
Sun 09:36:14 AM 33.0675 -84.3067 350° North 449 517 33,700 -950 Descending Atlanta Center
Sun 09:37:14 AM 33.1969 -84.3367 349° North 454 522 32,700 -1,000 Descending Atlanta Center
Sun 09:38:14 AM 33.3222 -84.3669 349° North 454 522 31,700 -1,000 Descending Atlanta Center
Sun 09:39:14 AM 33.4472 -84.3947 349° North 454 522 30,700 -1,300 Descending Atlanta Center
Sun 09:40:14 AM 33.5683 -84.4228 349° North 448 516 29,100 -1,700 Descending Atlanta Center
Sun 09:41:14 AM 33.6661 -84.4581 343° North 431 496 27,300 -1,950 Descending Atlanta Center
Sun 09:42:14 AM 33.7725 -84.5161 336° Northwest 411 473 25,200 -1,650 Descending Atlanta Center
Sun 09:43:14 AM 33.8767 -84.5692 337° Northwest 411 473 24,000 -850 Descending Atlanta Center
Sun 09:44:14 AM 33.9767 -84.6250 335° Northwest 395 455 23,500 -1,650 Descending Atlanta Center
Sun 09:45:14 AM 34.0806 -84.6833 335° Northwest 395 455 20,700 -2,400 Descending Atlanta Center
Sun 09:46:14 AM 34.1806 -84.7344 337° Northwest 401 461 18,700 -1,550 Descending Atlanta Center
Sun 09:47:14 AM 34.2719 -84.7828 336° Northwest 384 442 17,600 -1,450 Descending Atlanta Center
Sun 09:48:14 AM 34.3594 -84.8314 335° Northwest 358 412 15,800 -1,900 Descending Atlanta Center
Sun 09:49:14 AM 34.4467 -84.8775 336° Northwest 344 396 13,800 -1,750 Descending Atlanta Center
Sun 09:50:14 AM 34.5300 -84.9264 334° Northwest 338 389 12,300 -1,250 Descending Atlanta Center
Sun 09:51:14 AM 34.6089 -84.9675 337° Northwest 326 375 11,300 -1,600 Descending Atlanta Center
Sun 09:52:14 AM 34.6903 -84.9861 349° North 304 350 9,100 -150 Descending Atlanta Center
Sun 09:53:14 AM 34.7650 -85.0072 347° North 290 334 11,000 -2,100 Climbing Atlanta Center
Sun 09:54:14 AM 34.8400 -85.0333 344° North 277 319 4,900 -3,950 Descending Atlanta Center
Sun 09:55:14 AM 34.9089 -85.0494 349° North 261 300 3,100 -900 Descending Atlanta Center
Sun 09:56:14 AM 34.9858 -85.0581 355° North 256 295 3,100 3,950 Level Atlanta Center
Sun 09:57:14 AM 35.0528 -85.0614 358° North 251 289 11,000  Climbing Atlanta Center
Sun 09:58:14 AM 35.1172 -85.0672 356° North 245 282 3,100 -7,900 Descending Atlanta Center
Sun 10:00:00 AM 35.0352 -85.2036 234° Southwest  Level Estimated
Sun 10:07:00 AM 35.0333 -85.2000 331° Northwest  Level FlightAware Approximate
Sun 10:08:00 AM 35.0352 -85.2036 331° Northwest  Level Estimated
Sun 10:09:00 AM 35.0333 -85.2000 331° Northwest  Level FlightAware Approximate
Sun 10:10:00 AM 35.0352 -85.2036 331° Northwest  Level Estimated
Sun 10:11:00 AM 35.0333 -85.2000 331° Northwest  Level FlightAware Approximate

Login

Don't have an account? Register now (free) for customized features, flight alerts, and more!